Time;durP1;ratioP1;P1;durP2;ratioP2;P2;SDS_P1;SDS_P2;PMS_P1;PMS_P2;Temp;Humidity;BMP_temperature;BMP_pressure;BME280_temperature;BME280_humidity;BME280_pressure;Samples;Min_cycle;Max_cycle;Signal;HPM_P1;HPM_P2
2024/01/28 00:01:17;;;;;;;13.20;5.33;;;5.10;99.90;4.20;101852;;;;568942;249;24056;-75
2024/01/28 00:03:45;;;;;;;9.00;3.87;;;5.10;99.90;4.20;101855;;;;568753;249;24105;-76
2024/01/28 00:06:15;;;;;;;5.23;2.10;;;5.10;99.90;4.30;101846;;;;568756;249;24075;-76
2024/01/28 00:08:41;;;;;;;11.77;2.50;;;5.10;99.90;4.20;101855;;;;568614;249;24118;-76
2024/01/28 00:11:09;;;;;;;10.40;2.40;;;5.10;99.90;4.20;101853;;;;568793;249;24076;-76
2024/01/28 00:13:37;;;;;;;14.67;4.10;;;5.10;99.90;4.20;101870;;;;568559;249;24122;-76
2024/01/28 00:16:09;;;;;;;11.97;4.03;;;5.10;99.90;4.20;101872;;;;568783;249;24117;-76
2024/01/28 00:18:34;;;;;;;8.77;2.47;;;5.10;99.90;4.20;101865;;;;577432;248;24076;-77
2024/01/28 00:21:02;;;;;;;13.10;2.13;;;5.10;99.90;4.20;101863;;;;568788;249;24089;-77
2024/01/28 00:23:29;;;;;;;9.97;1.80;;;5.10;99.90;4.20;101876;;;;568734;249;24106;-77
2024/01/28 00:25:57;;;;;;;7.73;2.23;;;5.10;99.90;4.20;101873;;;;568687;249;24111;-76
2024/01/28 00:28:25;;;;;;;8.30;2.53;;;5.10;99.90;4.20;101878;;;;566593;249;24073;-76
2024/01/28 00:30:53;;;;;;;8.97;2.17;;;5.10;99.90;4.30;101880;;;;566458;249;24069;-74
2024/01/28 00:33:22;;;;;;;8.57;3.60;;;5.10;99.90;4.30;101870;;;;568469;249;24182;-76
2024/01/28 00:35:50;;;;;;;5.23;3.00;;;5.10;99.90;4.30;101872;;;;566446;249;24080;-76
2024/01/28 00:38:18;;;;;;;4.70;1.50;;;5.10;99.90;4.30;101874;;;;568502;249;24068;-76
2024/01/28 00:40:46;;;;;;;4.13;2.20;;;5.10;99.90;4.20;101873;;;;568470;249;24111;-76
2024/01/28 00:43:13;;;;;;;4.57;2.23;;;5.10;99.90;4.20;101876;;;;568427;249;24054;-77
2024/01/28 00:45:41;;;;;;;7.20;2.40;;;5.10;99.90;4.20;101878;;;;568024;249;24093;-77
2024/01/28 00:48:09;;;;;;;4.10;2.33;;;5.10;99.90;4.30;101885;;;;568195;249;24065;-76
2024/01/28 00:50:37;;;;;;;12.07;3.20;;;5.10;99.90;4.30;101884;;;;568074;249;24090;-75
2024/01/28 00:53:05;;;;;;;4.73;2.83;;;5.20;99.90;4.30;101882;;;;568209;249;24053;-77
2024/01/28 00:55:33;;;;;;;10.00;3.80;;;5.20;99.90;4.30;101884;;;;568182;249;24060;-76
2024/01/28 00:58:04;;;;;;;10.00;2.57;;;5.20;99.90;4.30;101880;;;;568010;249;24209;-76
2024/01/28 01:00:32;;;;;;;9.00;2.77;;;5.20;99.90;4.30;101872;;;;568680;248;24201;-76
2024/01/28 01:03:00;;;;;;;14.40;2.27;;;5.20;99.90;4.30;101873;;;;568513;249;24151;-76
2024/01/28 01:05:28;;;;;;;2.57;1.83;;;5.20;99.90;4.30;101877;;;;568505;249;24093;-76
2024/01/28 01:07:56;;;;;;;8.77;2.40;;;5.20;99.90;4.30;101885;;;;569965;248;24139;-75
2024/01/28 01:10:25;;;;;;;3.50;2.10;;;5.30;99.90;4.30;101877;;;;569411;248;24103;-75
2024/01/28 01:12:51;;;;;;;7.67;2.17;;;5.20;99.90;4.30;101883;;;;569255;249;24084;-76
2024/01/28 01:15:19;;;;;;;4.70;2.23;;;5.20;99.90;4.30;101881;;;;569185;249;24053;-76
2024/01/28 01:17:49;;;;;;;5.07;2.27;;;5.20;99.90;4.40;101875;;;;568727;249;24073;-77
2024/01/28 01:20:17;;;;;;;9.07;2.20;;;5.30;99.90;4.40;101883;;;;568545;249;24104;-76
2024/01/28 01:22:43;;;;;;;5.47;1.70;;;5.30;99.90;4.40;101885;;;;568713;249;24091;-76
2024/01/28 01:25:14;;;;;;;5.07;1.83;;;5.30;99.90;4.40;101883;;;;568426;249;24053;-76
2024/01/28 01:27:40;;;;;;;7.67;2.20;;;5.30;99.90;4.40;101887;;;;568300;249;24135;-76
2024/01/28 01:30:07;;;;;;;10.93;2.33;;;5.30;99.90;4.40;101889;;;;566570;249;24079;-77
2024/01/28 01:32:40;;;;;;;9.80;2.23;;;5.30;99.90;4.40;101878;;;;568662;249;24058;-78
2024/01/28 01:35:03;;;;;;;6.43;2.53;;;5.30;99.90;4.40;101870;;;;568855;248;24100;-76
2024/01/28 01:37:31;;;;;;;3.57;2.20;;;5.30;99.90;4.40;101876;;;;566456;249;24060;-75
2024/01/28 01:39:59;;;;;;;4.23;1.97;;;5.30;99.90;4.50;101878;;;;568776;249;24106;-75
2024/01/28 01:42:27;;;;;;;6.07;2.27;;;5.40;99.90;4.50;101869;;;;568665;249;24058;-76
2024/01/28 01:44:55;;;;;;;6.83;2.37;;;5.40;99.90;4.50;101859;;;;568464;249;24086;-76
2024/01/28 01:47:23;;;;;;;8.70;2.17;;;5.40;99.90;4.50;101862;;;;568239;249;24061;-76
2024/01/28 01:49:55;;;;;;;7.10;2.07;;;5.40;99.90;4.50;101872;;;;567986;249;24117;-76
2024/01/28 01:52:20;;;;;;;5.97;2.03;;;5.40;99.90;4.50;101874;;;;576514;249;24181;-76
2024/01/28 01:54:48;;;;;;;9.20;2.00;;;5.40;99.90;4.50;101870;;;;568100;249;24086;-75
2024/01/28 01:57:19;;;;;;;2.73;2.40;;;5.40;99.90;4.50;101872;;;;568467;249;24056;-75
2024/01/28 01:59:44;;;;;;;6.03;2.17;;;5.40;99.90;4.50;101863;;;;576935;249;24063;-76
2024/01/28 02:02:12;;;;;;;6.80;2.03;;;5.40;99.90;4.50;101879;;;;568390;249;24075;-76
2024/01/28 02:04:40;;;;;;;7.13;2.20;;;5.40;99.90;4.50;101882;;;;568424;249;24184;-76
2024/01/28 02:07:08;;;;;;;6.00;2.10;;;5.40;99.90;4.50;101888;;;;568838;249;24137;-75
2024/01/28 02:09:36;;;;;;;7.93;2.03;;;5.40;99.90;4.50;101881;;;;568913;249;24222;-76
2024/01/28 02:12:04;;;;;;;5.67;1.97;;;5.40;99.90;4.50;101886;;;;568565;249;24079;-75
2024/01/28 02:14:32;;;;;;;7.80;2.20;;;5.40;99.90;4.50;101884;;;;568508;249;24077;-75
2024/01/28 02:17:00;;;;;;;5.23;2.50;;;5.40;99.90;4.50;101884;;;;568174;249;24109;-75
2024/01/28 02:19:27;;;;;;;4.33;1.60;;;5.40;99.90;4.50;101889;;;;569485;248;25174;-75
2024/01/28 02:21:55;;;;;;;6.57;1.87;;;5.40;99.90;4.50;101896;;;;567004;248;24060;-75
2024/01/28 02:24:23;;;;;;;6.93;1.67;;;5.40;99.90;4.50;101890;;;;568884;249;24094;-76
2024/01/28 02:26:51;;;;;;;11.27;2.30;;;5.40;99.90;4.50;101895;;;;568918;249;24094;-76
2024/01/28 02:29:20;;;;;;;15.13;2.50;;;5.40;99.90;4.50;101899;;;;566737;249;24088;-76
2024/01/28 02:31:48;;;;;;;5.47;2.80;;;5.40;99.90;4.50;101908;;;;566743;249;24154;-76
2024/01/28 02:34:15;;;;;;;4.73;2.10;;;5.40;99.90;4.50;101906;;;;568904;249;24085;-76
2024/01/28 02:36:43;;;;;;;4.27;2.60;;;5.40;99.90;4.50;101914;;;;568803;249;24096;-76
2024/01/28 02:39:11;;;;;;;6.57;1.93;;;5.50;99.90;4.50;101927;;;;568715;249;24068;-76
2024/01/28 02:41:39;;;;;;;12.33;2.63;;;5.40;99.90;4.50;101917;;;;568689;249;24100;-76
2024/01/28 02:44:07;;;;;;;8.57;2.70;;;5.40;99.90;4.50;101918;;;;566420;249;24065;-76
2024/01/28 02:46:36;;;;;;;17.37;3.13;;;5.40;99.90;4.50;101926;;;;568693;249;24077;-76
2024/01/28 02:49:04;;;;;;;8.53;2.77;;;5.40;99.90;4.50;101922;;;;566133;249;24072;-76
2024/01/28 02:51:32;;;;;;;3.87;1.87;;;5.40;99.90;4.50;101927;;;;568422;249;24080;-75
2024/01/28 02:53:59;;;;;;;7.27;1.90;;;5.40;99.90;4.50;101931;;;;568237;249;26273;-76
2024/01/28 02:56:27;;;;;;;9.90;2.57;;;5.40;99.90;4.50;101932;;;;568318;249;24062;-75
2024/01/28 02:58:55;;;;;;;10.83;2.13;;;5.40;99.90;4.50;101936;;;;568222;249;24087;-75
2024/01/28 03:01:23;;;;;;;6.90;1.80;;;5.40;99.90;4.60;101935;;;;566276;249;24067;-76
2024/01/28 03:03:52;;;;;;;9.33;1.87;;;5.40;99.90;4.60;101934;;;;568517;249;24073;-76
2024/01/28 03:06:20;;;;;;;5.67;2.57;;;5.50;99.90;4.60;101929;;;;568503;249;24062;-76
2024/01/28 03:08:48;;;;;;;8.87;2.20;;;5.50;99.90;4.60;101934;;;;568509;249;24153;-76
2024/01/28 03:11:16;;;;;;;8.33;2.20;;;5.50;99.90;4.60;101942;;;;568419;249;24108;-76
2024/01/28 03:13:46;;;;;;;2.03;1.83;;;5.50;99.90;4.60;101947;;;;577154;248;24184;-76
2024/01/28 03:16:14;;;;;;;5.50;2.03;;;5.50;99.90;4.60;101957;;;;568507;249;24083;-77
2024/01/28 03:18:42;;;;;;;13.53;2.53;;;5.50;99.90;4.60;101951;;;;568461;249;24064;-77
2024/01/28 03:21:11;;;;;;;5.60;2.40;;;5.50;99.90;4.50;101955;;;;568257;249;24062;-76
2024/01/28 03:23:39;;;;;;;3.33;1.97;;;5.40;99.90;4.60;101970;;;;568166;249;24057;-76
2024/01/28 03:26:07;;;;;;;8.27;2.57;;;5.50;99.90;4.50;101974;;;;568296;249;24079;-76
2024/01/28 03:28:35;;;;;;;4.77;2.17;;;5.50;99.90;4.50;101974;;;;568436;249;24129;-75
2024/01/28 03:31:03;;;;;;;17.47;3.13;;;5.50;99.90;4.50;101987;;;;567345;248;24107;-76
2024/01/28 03:33:30;;;;;;;4.90;2.67;;;5.50;99.90;4.50;101980;;;;569227;248;24072;-75
2024/01/28 03:36:01;;;;;;;9.60;2.70;;;5.50;99.90;4.50;101978;;;;568844;249;24080;-75
2024/01/28 03:38:26;;;;;;;4.83;2.47;;;5.50;99.90;4.50;101976;;;;568753;249;24337;-75
2024/01/28 03:40:54;;;;;;;4.43;2.20;;;5.50;99.90;4.60;101984;;;;568638;249;24181;-77
2024/01/28 03:43:22;;;;;;;5.53;2.73;;;5.50;99.90;4.60;101986;;;;568508;249;24168;-75
2024/01/28 03:45:50;;;;;;;7.43;2.17;;;5.40;99.90;4.60;101989;;;;568687;249;24059;-75
2024/01/28 03:48:18;;;;;;;8.03;2.90;;;5.50;99.90;4.60;101995;;;;568393;249;24208;-75
2024/01/28 03:50:50;;;;;;;5.63;2.57;;;5.50;99.90;4.60;101995;;;;568682;249;24087;-76
2024/01/28 03:53:14;;;;;;;8.77;2.80;;;5.50;99.90;4.60;102001;;;;576912;249;24069;-77
2024/01/28 03:55:43;;;;;;;4.63;1.93;;;5.50;99.90;4.60;101996;;;;568691;249;24063;-75
2024/01/28 03:58:10;;;;;;;7.77;2.70;;;5.50;99.90;4.60;102003;;;;568746;249;24082;-76
2024/01/28 04:00:38;;;;;;;9.43;2.17;;;5.60;99.90;4.70;101997;;;;568471;249;24066;-76
2024/01/28 04:03:06;;;;;;;4.77;2.17;;;5.50;99.90;4.70;101998;;;;566305;249;24107;-77
2024/01/28 04:05:34;;;;;;;12.87;3.03;;;5.60;99.90;4.60;102006;;;;568222;249;24121;-76
2024/01/28 04:08:02;;;;;;;6.13;2.40;;;5.60;99.90;4.60;102001;;;;568200;249;24044;-77
2024/01/28 04:10:31;;;;;;;6.17;2.20;;;5.60;99.90;4.70;102007;;;;568193;249;24136;-75
2024/01/28 04:12:58;;;;;;;3.10;2.23;;;5.50;99.90;4.60;102004;;;;568072;249;24048;-75
2024/01/28 04:15:29;;;;;;;11.30;3.23;;;5.60;99.90;4.60;101995;;;;568124;249;24064;-76
2024/01/28 04:17:54;;;;;;;18.30;3.13;;;5.60;99.90;4.70;101995;;;;576378;249;24127;-76
2024/01/28 04:20:22;;;;;;;10.80;3.17;;;5.50;99.90;4.70;101994;;;;568122;249;24057;-75
2024/01/28 04:22:50;;;;;;;10.37;2.30;;;5.50;99.90;4.60;101994;;;;568513;249;24090;-74
2024/01/28 04:25:18;;;;;;;7.37;2.73;;;5.60;99.90;4.70;101990;;;;566319;249;24105;-75
2024/01/28 04:27:46;;;;;;;5.43;2.57;;;5.60;99.90;4.70;102002;;;;568145;249;24126;-75
2024/01/28 04:30:14;;;;;;;9.07;2.60;;;5.60;99.90;4.70;101990;;;;568116;249;24102;-75
2024/01/28 04:32:45;;;;;;;7.23;2.40;;;5.60;99.90;4.70;101995;;;;566331;249;24069;-75
2024/01/28 04:35:13;;;;;;;7.57;2.17;;;5.50;99.90;4.60;101987;;;;568305;249;24117;-76
2024/01/28 04:37:41;;;;;;;16.90;3.17;;;5.50;99.90;4.60;101997;;;;568528;249;24120;-76
2024/01/28 04:40:10;;;;;;;11.27;3.03;;;5.50;99.90;4.60;101989;;;;568536;249;24082;-76
2024/01/28 04:42:38;;;;;;;11.90;2.83;;;5.50;99.90;4.60;101998;;;;567756;248;24144;-75
2024/01/28 04:45:06;;;;;;;11.37;3.13;;;5.50;99.90;4.60;102000;;;;569490;248;24454;-75
2024/01/28 04:47:34;;;;;;;5.20;2.67;;;5.50;99.90;4.60;101999;;;;567134;249;24112;-75
2024/01/28 04:50:02;;;;;;;4.37;1.93;;;5.50;99.90;4.60;102001;;;;569235;249;24064;-76
2024/01/28 04:52:30;;;;;;;10.97;2.87;;;5.50;99.90;4.60;101996;;;;568614;249;24113;-75
2024/01/28 04:54:58;;;;;;;8.37;2.70;;;5.50;99.90;4.60;102007;;;;568727;249;24074;-75
2024/01/28 04:57:26;;;;;;;6.47;1.77;;;5.50;99.90;4.50;102008;;;;568689;249;24056;-76
2024/01/28 04:59:53;;;;;;;6.33;1.80;;;5.40;99.90;4.50;101997;;;;568441;249;24099;-76
2024/01/28 05:02:21;;;;;;;8.20;1.97;;;5.40;99.90;4.50;102001;;;;568366;249;24098;-76
2024/01/28 05:04:49;;;;;;;4.57;2.33;;;5.40;99.90;4.50;102001;;;;566583;249;24038;-76
2024/01/28 05:07:17;;;;;;;4.87;1.90;;;5.40;99.90;4.50;102007;;;;568725;249;24102;-76
2024/01/28 05:09:45;;;;;;;8.97;2.33;;;5.30;99.90;4.50;102013;;;;568750;249;24048;-76
2024/01/28 05:12:13;;;;;;;5.43;1.73;;;5.30;99.90;4.50;102017;;;;568743;249;24119;-75
2024/01/28 05:14:41;;;;;;;10.10;1.80;;;5.40;99.90;4.50;102013;;;;568684;249;24087;-76
2024/01/28 05:17:10;;;;;;;2.53;1.87;;;5.40;99.90;4.50;102017;;;;568592;249;24077;-75
2024/01/28 05:19:37;;;;;;;7.00;2.27;;;5.30;99.90;4.50;102013;;;;568437;249;24111;-76
2024/01/28 05:22:05;;;;;;;4.77;2.10;;;5.40;99.90;4.50;102012;;;;566297;249;24093;-76
2024/01/28 05:24:33;;;;;;;5.30;1.60;;;5.40;99.90;4.50;102016;;;;568245;249;24136;-77
2024/01/28 05:27:02;;;;;;;5.53;1.33;;;5.30;99.90;4.40;102014;;;;568158;249;24080;-76
2024/01/28 05:29:29;;;;;;;6.43;1.00;;;5.30;99.90;4.40;102014;;;;568030;249;24064;-75
2024/01/28 05:31:57;;;;;;;1.33;1.10;;;5.30;99.90;4.40;102029;;;;568188;249;24090;-75
2024/01/28 05:34:25;;;;;;;2.93;1.30;;;5.30;99.90;4.30;102024;;;;566289;249;24079;-76
2024/01/28 05:36:53;;;;;;;4.97;1.47;;;5.20;99.90;4.30;102025;;;;568464;249;24087;-76
2024/01/28 05:39:21;;;;;;;3.20;0.90;;;5.20;99.90;4.30;102033;;;;566322;249;24046;-76
2024/01/28 05:41:49;;;;;;;5.43;1.70;;;5.20;99.90;4.30;102031;;;;561401;249;35013;-76
2024/01/28 05:44:17;;;;;;;5.50;2.10;;;5.10;99.90;4.30;102046;;;;568437;249;24088;-75
2024/01/28 05:46:46;;;;;;;3.23;1.40;;;5.10;99.90;4.30;102041;;;;566322;249;24118;-76
2024/01/28 05:49:14;;;;;;;5.47;1.10;;;5.10;99.90;4.20;102045;;;;568435;249;24098;-78
2024/01/28 05:51:42;;;;;;;6.00;1.30;;;5.10;99.90;4.20;102048;;;;568467;249;24139;-75
2024/01/28 05:54:10;;;;;;;4.80;1.03;;;5.10;99.90;4.20;102053;;;;569689;248;24091;-77
2024/01/28 05:56:38;;;;;;;1.67;1.30;;;5.10;99.90;4.20;102051;;;;569119;248;24060;-77
2024/01/28 05:59:06;;;;;;;4.00;1.20;;;5.10;99.90;4.20;102056;;;;568844;249;24074;-76
2024/01/28 06:01:34;;;;;;;3.37;1.37;;;5.10;99.90;4.20;102048;;;;568882;249;24076;-76
2024/01/28 06:04:02;;;;;;;0.77;0.77;;;5.10;99.90;4.20;102066;;;;568572;249;24082;-78
2024/01/28 06:06:30;;;;;;;5.30;1.03;;;5.00;99.90;4.20;102063;;;;566804;249;24062;-78
2024/01/28 06:08:58;;;;;;;3.80;1.00;;;5.00;99.90;4.20;102054;;;;569016;249;24110;-77
2024/01/28 06:11:26;;;;;;;4.13;1.87;;;5.00;99.90;4.20;102057;;;;568792;249;24057;-76
2024/01/28 06:13:54;;;;;;;4.57;1.73;;;5.00;99.90;4.20;102051;;;;568727;249;24114;-76
2024/01/28 06:16:21;;;;;;;4.20;1.40;;;5.00;99.90;4.20;102062;;;;568771;249;24074;-76
2024/01/28 06:18:49;;;;;;;4.03;1.80;;;5.10;99.90;4.20;102057;;;;568766;249;24065;-76
2024/01/28 06:21:18;;;;;;;6.80;2.07;;;5.00;99.90;4.20;102061;;;;568733;249;24066;-76
2024/01/28 06:23:46;;;;;;;2.23;1.50;;;5.00;99.90;4.20;102055;;;;568456;249;24104;-77
2024/01/28 06:26:16;;;;;;;4.23;1.57;;;5.10;99.90;4.20;102066;;;;568438;249;24144;-75
2024/01/28 06:28:42;;;;;;;3.10;1.47;;;5.00;99.90;4.20;102060;;;;568255;249;24087;-76
2024/01/28 06:31:10;;;;;;;4.57;2.00;;;5.10;99.90;4.20;102065;;;;568163;249;24095;-77
2024/01/28 06:33:38;;;;;;;3.27;1.57;;;5.10;99.90;4.20;102065;;;;565920;249;24101;-76
2024/01/28 06:36:06;;;;;;;11.27;1.80;;;5.10;99.90;4.20;102073;;;;566297;249;24083;-77
2024/01/28 06:38:34;;;;;;;4.20;1.63;;;5.10;99.90;4.30;102072;;;;566271;249;24071;-75
2024/01/28 06:41:02;;;;;;;3.20;1.37;;;5.10;99.90;4.20;102082;;;;568464;249;24053;-76
2024/01/28 06:43:30;;;;;;;2.73;1.70;;;5.10;99.90;4.20;102075;;;;568522;249;24147;-75
2024/01/28 06:45:59;;;;;;;3.90;1.93;;;5.10;99.90;4.20;102075;;;;568514;249;24052;-75
2024/01/28 06:48:26;;;;;;;3.87;1.60;;;5.10;99.90;4.20;102067;;;;568462;249;24127;-75
2024/01/28 06:50:54;;;;;;;2.10;1.87;;;5.10;99.90;4.20;102071;;;;568511;249;24097;-77
2024/01/28 06:53:22;;;;;;;8.40;1.87;;;5.10;99.90;4.20;102074;;;;568249;249;24122;-77
2024/01/28 06:55:50;;;;;;;5.60;1.60;;;5.10;99.90;4.30;102074;;;;568137;249;24089;-76
2024/01/28 06:58:19;;;;;;;3.97;1.30;;;5.10;99.90;4.30;102074;;;;568031;249;24117;-76
2024/01/28 07:00:49;;;;;;;10.37;2.03;;;5.10;99.90;4.30;102067;;;;568180;249;24045;-76
2024/01/28 07:03:14;;;;;;;3.30;2.23;;;5.10;99.90;4.30;102073;;;;576482;249;24072;-75
2024/01/28 07:05:42;;;;;;;3.00;2.13;;;5.20;99.90;4.30;102079;;;;569600;248;24100;-76
2024/01/28 07:08:10;;;;;;;4.87;2.07;;;5.20;99.90;4.30;102081;;;;567260;248;25141;-77
2024/01/28 07:10:40;;;;;;;6.73;1.87;;;5.20;99.90;4.40;102078;;;;569253;249;24071;-76
2024/01/28 07:13:06;;;;;;;4.00;1.57;;;5.20;99.90;4.40;102077;;;;577811;248;24117;-76
2024/01/28 07:15:34;;;;;;;2.83;1.70;;;5.30;99.90;4.50;102075;;;;568998;249;24048;-75
2024/01/28 07:18:02;;;;;;;4.67;2.13;;;5.40;99.90;4.50;102072;;;;568977;249;24122;-75
2024/01/28 07:20:29;;;;;;;4.63;1.80;;;5.40;99.90;4.50;102071;;;;569063;249;24110;-76
2024/01/28 07:22:57;;;;;;;3.03;1.70;;;5.40;99.90;4.50;102087;;;;569055;249;24115;-77
2024/01/28 07:25:25;;;;;;;7.33;2.90;;;5.40;99.90;4.50;102091;;;;563570;249;35093;-75
2024/01/28 07:27:53;;;;;;;6.97;2.10;;;5.40;99.90;4.60;102089;;;;568322;249;24094;-77
2024/01/28 07:30:21;;;;;;;5.00;1.90;;;5.40;99.90;4.60;102091;;;;568758;249;24105;-78
2024/01/28 07:32:49;;;;;;;3.73;1.63;;;5.50;99.90;4.60;102095;;;;568701;249;24063;-76
2024/01/28 07:35:17;;;;;;;6.47;1.77;;;5.50;99.90;4.70;102102;;;;566585;249;24123;-76
2024/01/28 07:37:45;;;;;;;4.23;1.47;;;5.50;99.90;4.70;102110;;;;568412;249;24048;-77
2024/01/28 07:40:16;;;;;;;2.40;1.63;;;5.60;99.90;4.80;102101;;;;568276;249;24108;-76
2024/01/28 07:42:41;;;;;;;6.67;1.37;;;5.70;99.90;4.80;102113;;;;568088;249;24130;-77
2024/01/28 07:45:12;;;;;;;2.30;1.73;;;5.70;99.90;4.80;102108;;;;568519;249;24090;-77
2024/01/28 07:47:41;;;;;;;6.43;2.72;;;5.70;99.90;4.90;102120;;;;563592;249;35114;-75
2024/01/28 07:50:09;;;;;;;2.73;1.87;;;5.70;99.90;4.90;102121;;;;568484;249;24121;-75
2024/01/28 07:52:37;;;;;;;9.37;2.10;;;5.80;99.90;4.90;102125;;;;566376;249;24157;-77
2024/01/28 07:55:09;;;;;;;5.63;1.70;;;5.80;99.90;4.90;102125;;;;568361;249;24097;-76
2024/01/28 07:57:33;;;;;;;9.37;2.67;;;5.80;99.90;5.00;102119;;;;571847;248;35078;-77
2024/01/28 08:00:05;;;;;;;3.73;2.43;;;5.90;99.90;5.00;102130;;;;568307;249;24081;-77
2024/01/28 08:02:29;;;;;;;4.50;1.70;;;5.90;99.90;5.00;102148;;;;568166;249;24115;-77
2024/01/28 08:04:57;;;;;;;5.53;1.80;;;5.90;99.90;5.00;102138;;;;568307;249;24065;-76
2024/01/28 08:07:28;;;;;;;6.57;2.00;;;5.90;99.90;5.00;102132;;;;566184;249;25107;-75
2024/01/28 08:09:55;;;;;;;1.50;1.40;;;5.90;99.90;5.10;102136;;;;568390;248;24076;-75
2024/01/28 08:12:20;;;;;;;6.33;2.23;;;6.00;99.90;5.10;102134;;;;568073;249;24100;-75
2024/01/28 08:14:48;;;;;;;3.17;1.43;;;6.00;99.90;5.20;102129;;;;568131;249;24062;-76
2024/01/28 08:17:17;;;;;;;2.80;1.57;;;6.10;99.90;5.20;102128;;;;569955;248;24097;-76
2024/01/28 08:19:45;;;;;;;6.20;1.67;;;6.10;99.90;5.30;102134;;;;569466;248;24108;-76
2024/01/28 08:22:16;;;;;;;3.63;1.87;;;6.20;99.90;5.30;102127;;;;569312;249;24118;-78
2024/01/28 08:24:41;;;;;;;1.43;1.43;;;6.20;99.90;5.40;102121;;;;568915;249;24089;-76
2024/01/28 08:27:09;;;;;;;2.03;1.40;;;6.20;99.90;5.40;102135;;;;568573;249;24139;-77
2024/01/28 08:29:41;;;;;;;4.80;2.90;;;6.30;99.90;5.50;102131;;;;569156;249;24074;-77
2024/01/28 08:32:04;;;;;;;6.73;2.77;;;6.30;99.90;5.50;102138;;;;568900;249;24053;-76
2024/01/28 08:34:33;;;;;;;3.50;2.60;;;6.40;99.90;5.60;102141;;;;566535;249;24061;-76
2024/01/28 08:37:01;;;;;;;4.47;2.43;;;6.40;99.90;5.60;102135;;;;568740;249;25191;-76
2024/01/28 08:39:29;;;;;;;7.43;2.43;;;6.50;99.90;5.70;102138;;;;566714;249;24065;-76
2024/01/28 08:41:59;;;;;;;2.80;2.10;;;6.50;99.90;5.70;102150;;;;568812;249;24049;-77
2024/01/28 08:44:25;;;;;;;9.03;2.80;;;6.60;99.90;5.90;102147;;;;568722;249;24046;-77
2024/01/28 08:46:53;;;;;;;6.77;2.07;;;6.70;99.90;6.00;102147;;;;568724;249;24091;-76
2024/01/28 08:49:21;;;;;;;4.33;2.17;;;6.80;99.90;6.10;102147;;;;568840;249;24095;-77
2024/01/28 08:51:48;;;;;;;7.27;2.80;;;6.90;99.90;6.10;102152;;;;568601;249;24166;-76
2024/01/28 08:54:16;;;;;;;4.77;2.30;;;6.90;99.90;6.00;102161;;;;568115;249;24115;-76
2024/01/28 08:56:47;;;;;;;3.37;2.73;;;6.80;99.90;6.00;102158;;;;568023;249;24117;-77
2024/01/28 08:59:12;;;;;;;3.97;2.70;;;6.80;99.90;5.90;102159;;;;576704;248;24103;-76
2024/01/28 09:01:40;;;;;;;5.00;2.50;;;6.80;99.90;5.90;102160;;;;568038;249;24065;-77
2024/01/28 09:04:09;;;;;;;9.70;2.70;;;6.80;99.90;6.10;102168;;;;568155;249;24126;-76
2024/01/28 09:06:36;;;;;;;6.77;3.07;;;6.90;99.90;6.30;102167;;;;568118;249;24065;-77
2024/01/28 09:09:07;;;;;;;4.87;2.63;;;7.00;99.90;6.50;102174;;;;568520;249;24063;-77
2024/01/28 09:11:35;;;;;;;6.57;2.67;;;7.20;99.90;6.70;102186;;;;566315;249;24080;-76
2024/01/28 09:14:01;;;;;;;6.53;2.17;;;7.80;99.90;7.00;102185;;;;577178;246;24096;-76
2024/01/28 09:16:28;;;;;;;1.87;1.70;;;7.70;99.90;7.20;102178;;;;568535;248;24060;-77
2024/01/28 09:18:56;;;;;;;5.40;2.27;;;8.00;99.90;7.40;102200;;;;568440;249;24055;-76
2024/01/28 09:21:24;;;;;;;4.27;1.97;;;8.20;99.90;7.80;102197;;;;568458;249;24097;-77
2024/01/28 09:23:52;;;;;;;8.60;2.20;;;8.50;99.90;8.00;102197;;;;568454;249;24097;-75
2024/01/28 09:26:20;;;;;;;5.23;2.17;;;8.80;99.90;8.20;102205;;;;568056;249;24132;-77
2024/01/28 09:28:48;;;;;;;5.30;2.33;;;9.00;99.90;8.30;102200;;;;569853;248;24043;-77
2024/01/28 09:31:16;;;;;;;4.60;2.00;;;9.10;99.90;8.20;102204;;;;569528;248;24075;-76
2024/01/28 09:33:44;;;;;;;4.37;1.77;;;9.10;99.90;8.00;102209;;;;569256;249;24092;-76
2024/01/28 09:36:11;;;;;;;5.60;1.80;;;8.90;99.90;7.80;102211;;;;569219;249;24041;-76
2024/01/28 09:38:39;;;;;;;7.93;1.60;;;8.80;99.90;7.70;102218;;;;569036;249;24328;-76
2024/01/28 09:41:28;;;;;;;3.37;1.67;;;8.60;99.90;7.60;102223;;;;566573;249;24053;-76
2024/01/28 09:43:56;;;;;;;4.13;1.73;;;8.50;99.90;7.40;102226;;;;559234;248;24211;-77
2024/01/28 09:46:24;;;;;;;3.67;1.93;;;8.30;99.90;7.30;102220;;;;569603;251;24109;-76
2024/01/28 09:48:56;;;;;;;2.73;1.67;;;8.20;99.90;7.20;102214;;;;558757;251;24115;-76
2024/01/28 09:51:23;;;;;;;7.00;2.20;;;8.00;99.90;7.10;102217;;;;558591;251;24151;-77
2024/01/28 09:53:51;;;;;;;5.40;2.33;;;7.90;99.90;7.10;102212;;;;570619;251;24121;-75
2024/01/28 09:56:22;;;;;;;5.80;2.40;;;7.90;99.90;7.20;102215;;;;566164;254;24135;-76
2024/01/28 09:58:50;;;;;;;2.83;2.03;;;8.00;99.90;7.30;102213;;;;562122;253;24110;-76
2024/01/28 10:01:14;;;;;;;8.60;2.70;;;8.00;99.90;7.30;102213;;;;561215;251;24220;-75
2024/01/28 10:03:42;;;;;;;11.37;3.03;;;8.10;99.90;7.40;102206;;;;570769;251;24184;-78
2024/01/28 10:06:10;;;;;;;6.90;2.27;;;8.20;99.90;7.50;102216;;;;559412;252;24162;-76
2024/01/28 10:08:38;;;;;;;4.07;2.27;;;8.30;99.90;7.50;102219;;;;565863;254;24155;-77
2024/01/28 10:11:10;;;;;;;6.37;2.23;;;8.20;99.90;7.40;102216;;;;559125;253;24138;-77
2024/01/28 10:13:35;;;;;;;7.67;2.43;;;8.20;99.90;7.40;102210;;;;568950;250;24148;-77
2024/01/28 10:16:03;;;;;;;5.97;2.90;;;8.20;99.90;7.30;102217;;;;565860;253;24135;-76
2024/01/28 10:18:31;;;;;;;7.73;2.93;;;8.20;99.90;7.30;102219;;;;558758;253;24177;-77
2024/01/28 10:20:58;;;;;;;5.93;2.63;;;8.10;99.90;7.20;102215;;;;565380;253;24114;-77
2024/01/28 10:23:29;;;;;;;3.90;1.83;;;8.10;99.90;7.10;102212;;;;558850;253;24122;-76
2024/01/28 10:25:54;;;;;;;7.53;2.40;;;7.90;99.90;7.00;102213;;;;560877;252;24226;-76
2024/01/28 10:28:27;;;;;;;5.93;2.00;;;7.80;99.90;6.90;102216;;;;556217;253;25189;-77
2024/01/28 10:30:50;;;;;;;4.17;1.80;;;7.70;99.90;6.80;102215;;;;555903;253;24152;-77
2024/01/28 10:33:18;;;;;;;4.83;2.10;;;7.60;99.90;6.70;102210;;;;545975;262;24243;-76
2024/01/28 10:35:46;;;;;;;3.40;1.97;;;7.50;99.90;6.70;102212;;;;542610;259;24218;-77
2024/01/28 10:38:14;;;;;;;6.57;2.27;;;7.50;99.90;6.70;102208;;;;556180;253;24212;-76
2024/01/28 10:40:41;;;;;;;6.73;2.17;;;7.50;99.90;6.70;102207;;;;545213;257;24162;-76
2024/01/28 10:43:09;;;;;;;6.57;2.63;;;7.50;99.90;6.80;102207;;;;549223;257;24181;-76
2024/01/28 10:45:37;;;;;;;9.20;2.30;;;7.60;99.90;6.80;102204;;;;545157;257;24181;-75
2024/01/28 10:48:08;;;;;;;7.60;3.60;;;7.80;99.90;6.80;102204;;;;540855;259;35673;-76
2024/01/28 10:50:40;;;;;;;6.30;2.20;;;7.60;99.90;6.80;102202;;;;546787;257;24277;-76
2024/01/28 10:53:05;;;;;;;8.70;2.53;;;7.60;99.90;6.90;102205;;;;542158;259;24154;-76
2024/01/28 10:55:33;;;;;;;6.13;2.90;;;7.60;99.90;6.80;102209;;;;552490;253;35637;-76
2024/01/28 10:58:01;;;;;;;3.07;1.80;;;7.70;99.90;6.80;102203;;;;558778;253;24192;-77
2024/01/28 11:00:31;;;;;;;5.70;2.20;;;7.60;99.90;6.80;102204;;;;558200;253;24130;-76
2024/01/28 11:02:58;;;;;;;1.60;1.47;;;7.60;99.90;6.80;102199;;;;557921;253;24178;-76
2024/01/28 11:05:24;;;;;;;4.50;1.57;;;7.60;99.90;6.70;102202;;;;556368;253;24117;-76
2024/01/28 11:07:54;;;;;;;3.07;1.30;;;7.60;99.90;6.70;102209;;;;556727;253;24279;-77
2024/01/28 11:10:24;;;;;;;5.03;1.60;;;7.50;99.90;6.70;102211;;;;556753;253;24127;-74
2024/01/28 11:12:48;;;;;;;3.17;1.60;;;7.50;99.90;6.60;102211;;;;567131;253;24190;-76
2024/01/28 11:15:16;;;;;;;3.47;1.70;;;7.40;99.90;6.60;102227;;;;558758;253;24123;-78
2024/01/28 11:17:44;;;;;;;2.60;1.30;;;7.40;99.90;6.60;102223;;;;558232;253;24201;-76
2024/01/28 11:20:16;;;;;;;1.73;1.40;;;7.40;99.90;6.60;102226;;;;556420;253;24121;-76
2024/01/28 11:22:59;;;;;;;7.40;1.97;;;7.40;99.90;6.60;102209;;;;558720;253;24128;-77
2024/01/28 11:25:26;;;;;;;13.20;3.07;;;7.30;99.90;6.50;102211;;;;561840;253;24125;-77
2024/01/28 11:27:51;;;;;;;4.13;2.20;;;7.30;99.90;6.60;102218;;;;566939;252;24163;-77